Gulf — V2BB5 — position and weather

sailwx.info

Track history (hours):
 
Tides and Currents Weather Stations Pressure Air Temp Water Temp Dewpoint Dewpoint Depression Visibility Wind Speed Wind Dir Waves Ship Positions

Gulf

Last reported at 2016-Jun-24 21:33 UTC. Time now 2016-Jun-24 22:17 UTC.
Position N 40°51' E 029°15'.

Length 96 m; draft 3.3 m.

Type: Cargo ship. MMSI: 304320000.

Date/timePositionNaut miles runAvg speedWind from/ knotsBaromVisibWave heightAir tempDewpointWater temp
2016-Jun-24 21:33N 40°51' E 029°15'0 0.0
2016-Jun-24 20:33N 40°51' E 029°15'0 0.0
2016-Jun-24 19:33N 40°51' E 029°15'0 0.0
2016-Jun-24 18:33N 40°51' E 029°15'0 0.0
2016-Jun-24 17:33N 40°51' E 029°15'0 0.0
2016-Jun-24 16:33N 40°51' E 029°15'0 0.0
2016-Jun-24 15:27N 40°51' E 029°15'0 0.0
2016-Jun-24 14:33N 40°51' E 029°15'0 0.0
2016-Jun-24 13:33N 40°51' E 029°15'0 0.0
2016-Jun-24 12:27N 40°51' E 029°15'0 0.0
2016-Jun-24 11:33N 40°51' E 029°15'0 0.0
2016-Jun-24 10:27N 40°51' E 029°15'0 0.0
2016-Jun-24 09:33N 40°51' E 029°15'0 0.0
2016-Jun-24 08:33N 40°51' E 029°15'0 0.1
2016-Jun-24 07:33N 40°51' E 029°15'0 0.0
2016-Jun-24 04:27N 40°51' E 029°15'0 0.0
2016-Jun-24 03:33N 40°51' E 029°15'0 0.0
2016-Jun-24 02:21N 40°51' E 029°15'0 0.0
2016-Jun-24 01:33N 40°51' E 029°15'0 0.0
2016-Jun-24 00:33N 40°51' E 029°15'0 0.0
2016-Jun-23 23:33N 40°51' E 029°15'0 0.0
2016-Jun-23 22:33N 40°51' E 029°15'0 0.0
2016-Jun-23 21:27N 40°51' E 029°15'0 0.0
2016-Jun-23 20:27N 40°51' E 029°15'0 0.0
2016-Jun-23 19:33N 40°51' E 029°15'0 0.0
2016-Jun-23 18:33N 40°51' E 029°15'0 0.0
2016-Jun-23 17:33N 40°51' E 029°15'0 0.0
2016-Jun-23 16:33N 40°51' E 029°15'0 0.0
2016-Jun-23 15:33N 40°51' E 029°15'0 0.0
2016-Jun-23 14:33N 40°51' E 029°15'0 0.0
2016-Jun-23 13:33N 40°51' E 029°15'0 0.0
2016-Jun-23 12:33N 40°51' E 029°15'0 0.0
2016-Jun-23 11:33N 40°51' E 029°15'0 0.0
2016-Jun-23 10:33N 40°51' E 029°15'0 0.0
2016-Jun-23 09:33N 40°51' E 029°15'0 0.0
2016-Jun-23 08:27N 40°51' E 029°15'0 0.0
2016-Jun-23 07:33N 40°51' E 029°15'0 0.0
2016-Jun-23 05:33N 40°51' E 029°15'0 0.0
2016-Jun-23 04:33N 40°51' E 029°15'0 0.0
2016-Jun-23 03:33N 40°51' E 029°15'0 0.0
2016-Jun-23 02:33N 40°51' E 029°15'0 0.0
2016-Jun-23 01:27N 40°51' E 029°15'0 0.0
2016-Jun-23 00:33N 40°51' E 029°15'0 0.0
2016-Jun-22 23:33N 40°51' E 029°15'0 0.0
2016-Jun-22 22:33N 40°51' E 029°15'0 0.0
2016-Jun-22 21:33N 40°51' E 029°15'0 0.0
2016-Jun-22 20:27N 40°51' E 029°15'0 0.0
2016-Jun-22 19:33N 40°51' E 029°15'0 0.0
2016-Jun-22 17:33N 40°51' E 029°15'0 0.0
2016-Jun-22 16:33N 40°51' E 029°15'0 0.0
2016-Jun-22 15:33N 40°51' E 029°15'3 3.4
2016-Jun-22 14:33N 40°47' E 029°14'2 2.0
2016-Jun-22 13:33N 40°46' E 029°17'1 1.3
2016-Jun-22 12:33N 40°47' E 029°15'4 4.0
2016-Jun-22 11:31N 40°51' E 029°14'0 0.0
2016-Jun-22 10:13N 40°51' E 029°14'0 0.0
2016-Jun-22 09:31N 40°51' E 029°14'0 0.0
2016-Jun-22 08:25N 40°51' E 029°14'0 0.0
2016-Jun-22 07:31N 40°51' E 029°14'0 0.0
2016-Jun-22 06:25N 40°51' E 029°14'0 0.0
2016-Jun-22 05:31N 40°51' E 029°14'0 0.0
2016-Jun-22 04:25N 40°51' E 029°14'0 0.0
2016-Jun-22 03:25N 40°51' E 029°14'0 0.0
2016-Jun-22 02:25N 40°51' E 029°14'0 0.0
2016-Jun-22 01:31N 40°51' E 029°14'0 0.0
2016-Jun-22 00:31N 40°51' E 029°14'0 0.0
2016-Jun-21 23:19N 40°51' E 029°14'0 0.0
2016-Jun-21 22:31N 40°51' E 029°14'0 0.0
2016-Jun-21 21:31N 40°51' E 029°14'0 0.0
2016-Jun-21 20:31N 40°51' E 029°14'0 0.0
2016-Jun-21 19:31N 40°51' E 029°14'0 0.0
2016-Jun-21 18:31N 40°51' E 029°14'0 0.0
2016-Jun-21 17:31N 40°51' E 029°14'0 0.0
2016-Jun-21 16:31N 40°51' E 029°14'0 0.0
2016-Jun-21 15:31N 40°51' E 029°14'0 0.0
2016-Jun-21 14:31N 40°51' E 029°14'1 1.3
2016-Jun-21 13:33N 40°49' E 029°14'3 3.0
2016-Jun-21 12:33N 40°46' E 029°14'2 1.9
2016-Jun-21 11:33N 40°47' E 029°12'1 1.4
2016-Jun-21 10:33N 40°49' E 029°12'2 2.2
2016-Jun-21 09:28N 40°51' E 029°14'0 0.0
2016-Jun-21 08:28N 40°51' E 029°14'0 0.0
2016-Jun-21 07:28N 40°51' E 029°14'0 0.0
2016-Jun-21 04:28N 40°51' E 029°14'0 0.0
2016-Jun-21 03:28N 40°51' E 029°14'0 0.0
2016-Jun-21 02:16N 40°51' E 029°14'0 0.0
2016-Jun-21 01:28N 40°51' E 029°14'0 0.0
2016-Jun-21 00:28N 40°51' E 029°14'0 0.0
2016-Jun-20 23:28N 40°51' E 029°14'0 0.0
2016-Jun-20 22:28N 40°51' E 029°14'0 0.0
2016-Jun-20 21:28N 40°51' E 029°14'0 0.0
2016-Jun-20 20:16N 40°51' E 029°14'0 0.0
2016-Jun-20 19:28N 40°51' E 029°14'0 0.0
2016-Jun-20 18:28N 40°51' E 029°14'0 0.0
2016-Jun-20 17:28N 40°51' E 029°14'0 0.0
2016-Jun-20 16:28N 40°51' E 029°14'0 0.0
2016-Jun-20 15:28N 40°51' E 029°14'0 0.0
2016-Jun-20 14:34N 40°51' E 029°14'0 0.0
2016-Jun-20 13:28N 40°51' E 029°14'0 0.0
2016-Jun-20 12:28N 40°51' E 029°14'0 0.1
2016-Jun-20 11:23N 40°51' E 029°14'0 0.0
2016-Jun-20 10:29N 40°51' E 029°14'0 0.0
2016-Jun-20 09:29N 40°51' E 029°14'0 0.0
2016-Jun-20 08:29N 40°51' E 029°14'0 0.0
2016-Jun-20 07:29N 40°51' E 029°14'0 0.0
2016-Jun-18 09:29N 40°51' E 029°14'0 0.0
2016-Jun-18 08:29N 40°51' E 029°14'0 0.0
2016-Jun-18 07:23N 40°51' E 029°14'0 0.0
2016-Jun-18 06:29N 40°51' E 029°14'0 0.0
2016-Jun-18 05:23N 40°51' E 029°14'0 0.0
2016-Jun-18 04:29N 40°51' E 029°14'0 0.0
2016-Jun-18 03:29N 40°51' E 029°14'0 0.0
2016-Jun-18 02:29N 40°51' E 029°14'0 0.0
2016-Jun-18 01:29N 40°51' E 029°14'0 0.0
2016-Jun-18 00:29N 40°51' E 029°14'0 0.0
2016-Jun-17 23:29N 40°51' E 029°14'0 0.0
2016-Jun-17 22:23N 40°51' E 029°14'0 0.1
2016-Jun-17 21:29N 40°51' E 029°14'0 0.0
2016-Jun-17 20:29N 40°51' E 029°14'0 0.0
2016-Jun-17 19:29N 40°51' E 029°14'0 0.0
2016-Jun-17 18:29N 40°51' E 029°14'0 0.0
2016-Jun-17 17:29N 40°51' E 029°14'0 0.0
2016-Jun-17 16:32N 40°51' E 029°14'0 0.0
2016-Jun-17 15:29N 40°51' E 029°14'0 0.0
2016-Jun-17 14:11N 40°51' E 029°14'0 0.0
2016-Jun-17 13:29N 40°51' E 029°14'0 0.0
2016-Jun-17 12:29N 40°51' E 029°14'  
Track history (hours):
 
Tides and Currents Weather Stations Pressure Air Temp Water Temp Dewpoint Dewpoint Depression Visibility Wind Speed Wind Dir Waves Ship Positions

Gulf

Last reported at 2016-Jun-24 21:33 UTC. Time now 2016-Jun-24 22:17 UTC.
Position N 40°51' E 029°15'.

Length 96 m; draft 3.3 m.

Type: Cargo ship. MMSI: 304320000.

Date/timePositionNaut miles runAvg speedWind from/ knotsBaromVisibWave heightAir tempDewpointWater temp
2016-Jun-24 21:33N 40°51' E 029°15'0 0.0
2016-Jun-24 20:33N 40°51' E 029°15'0 0.0
2016-Jun-24 19:33N 40°51' E 029°15'0 0.0
2016-Jun-24 18:33N 40°51' E 029°15'0 0.0
2016-Jun-24 17:33N 40°51' E 029°15'0 0.0
2016-Jun-24 16:33N 40°51' E 029°15'0 0.0
2016-Jun-24 15:27N 40°51' E 029°15'0 0.0
2016-Jun-24 14:33N 40°51' E 029°15'0 0.0
2016-Jun-24 13:33N 40°51' E 029°15'0 0.0
2016-Jun-24 12:27N 40°51' E 029°15'0 0.0
2016-Jun-24 11:33N 40°51' E 029°15'0 0.0
2016-Jun-24 10:27N 40°51' E 029°15'0 0.0
2016-Jun-24 09:33N 40°51' E 029°15'0 0.0
2016-Jun-24 08:33N 40°51' E 029°15'0 0.1
2016-Jun-24 07:33N 40°51' E 029°15'0 0.0
2016-Jun-24 04:27N 40°51' E 029°15'0 0.0
2016-Jun-24 03:33N 40°51' E 029°15'0 0.0
2016-Jun-24 02:21N 40°51' E 029°15'0 0.0
2016-Jun-24 01:33N 40°51' E 029°15'0 0.0
2016-Jun-24 00:33N 40°51' E 029°15'0 0.0
2016-Jun-23 23:33N 40°51' E 029°15'0 0.0
2016-Jun-23 22:33N 40°51' E 029°15'0 0.0
2016-Jun-23 21:27N 40°51' E 029°15'0 0.0
2016-Jun-23 20:27N 40°51' E 029°15'0 0.0
2016-Jun-23 19:33N 40°51' E 029°15'0 0.0
2016-Jun-23 18:33N 40°51' E 029°15'0 0.0
2016-Jun-23 17:33N 40°51' E 029°15'0 0.0
2016-Jun-23 16:33N 40°51' E 029°15'0 0.0
2016-Jun-23 15:33N 40°51' E 029°15'0 0.0
2016-Jun-23 14:33N 40°51' E 029°15'0 0.0
2016-Jun-23 13:33N 40°51' E 029°15'0 0.0
2016-Jun-23 12:33N 40°51' E 029°15'0 0.0
2016-Jun-23 11:33N 40°51' E 029°15'0 0.0
2016-Jun-23 10:33N 40°51' E 029°15'0 0.0
2016-Jun-23 09:33N 40°51' E 029°15'0 0.0
2016-Jun-23 08:27N 40°51' E 029°15'0 0.0
2016-Jun-23 07:33N 40°51' E 029°15'0 0.0
2016-Jun-23 05:33N 40°51' E 029°15'0 0.0
2016-Jun-23 04:33N 40°51' E 029°15'0 0.0
2016-Jun-23 03:33N 40°51' E 029°15'0 0.0
2016-Jun-23 02:33N 40°51' E 029°15'0 0.0
2016-Jun-23 01:27N 40°51' E 029°15'0 0.0
2016-Jun-23 00:33N 40°51' E 029°15'0 0.0
2016-Jun-22 23:33N 40°51' E 029°15'0 0.0
2016-Jun-22 22:33N 40°51' E 029°15'0 0.0
2016-Jun-22 21:33N 40°51' E 029°15'0 0.0
2016-Jun-22 20:27N 40°51' E 029°15'0 0.0
2016-Jun-22 19:33N 40°51' E 029°15'0 0.0
2016-Jun-22 17:33N 40°51' E 029°15'0 0.0
2016-Jun-22 16:33N 40°51' E 029°15'0 0.0
2016-Jun-22 15:33N 40°51' E 029°15'3 3.4
2016-Jun-22 14:33N 40°47' E 029°14'2 2.0
2016-Jun-22 13:33N 40°46' E 029°17'1 1.3
2016-Jun-22 12:33N 40°47' E 029°15'4 4.0
2016-Jun-22 11:31N 40°51' E 029°14'0 0.0
2016-Jun-22 10:13N 40°51' E 029°14'0 0.0
2016-Jun-22 09:31N 40°51' E 029°14'0 0.0
2016-Jun-22 08:25N 40°51' E 029°14'0 0.0
2016-Jun-22 07:31N 40°51' E 029°14'0 0.0
2016-Jun-22 06:25N 40°51' E 029°14'0 0.0
2016-Jun-22 05:31N 40°51' E 029°14'0 0.0
2016-Jun-22 04:25N 40°51' E 029°14'0 0.0
2016-Jun-22 03:25N 40°51' E 029°14'0 0.0
2016-Jun-22 02:25N 40°51' E 029°14'0 0.0
2016-Jun-22 01:31N 40°51' E 029°14'0 0.0
2016-Jun-22 00:31N 40°51' E 029°14'0 0.0
2016-Jun-21 23:19N 40°51' E 029°14'0 0.0
2016-Jun-21 22:31N 40°51' E 029°14'0 0.0
2016-Jun-21 21:31N 40°51' E 029°14'0 0.0
2016-Jun-21 20:31N 40°51' E 029°14'0 0.0
2016-Jun-21 19:31N 40°51' E 029°14'0 0.0
2016-Jun-21 18:31N 40°51' E 029°14'0 0.0
2016-Jun-21 17:31N 40°51' E 029°14'0 0.0
2016-Jun-21 16:31N 40°51' E 029°14'0 0.0
2016-Jun-21 15:31N 40°51' E 029°14'0 0.0
2016-Jun-21 14:31N 40°51' E 029°14'1 1.3
2016-Jun-21 13:33N 40°49' E 029°14'3 3.0
2016-Jun-21 12:33N 40°46' E 029°14'2 1.9
2016-Jun-21 11:33N 40°47' E 029°12'1 1.4
2016-Jun-21 10:33N 40°49' E 029°12'2 2.2
2016-Jun-21 09:28N 40°51' E 029°14'0 0.0
2016-Jun-21 08:28N 40°51' E 029°14'0 0.0
2016-Jun-21 07:28N 40°51' E 029°14'0 0.0
2016-Jun-21 04:28N 40°51' E 029°14'0 0.0
2016-Jun-21 03:28N 40°51' E 029°14'0 0.0
2016-Jun-21 02:16N 40°51' E 029°14'0 0.0
2016-Jun-21 01:28N 40°51' E 029°14'0 0.0
2016-Jun-21 00:28N 40°51' E 029°14'0 0.0
2016-Jun-20 23:28N 40°51' E 029°14'0 0.0
2016-Jun-20 22:28N 40°51' E 029°14'0 0.0
2016-Jun-20 21:28N 40°51' E 029°14'0 0.0
2016-Jun-20 20:16N 40°51' E 029°14'0 0.0
2016-Jun-20 19:28N 40°51' E 029°14'0 0.0
2016-Jun-20 18:28N 40°51' E 029°14'0 0.0
2016-Jun-20 17:28N 40°51' E 029°14'0 0.0
2016-Jun-20 16:28N 40°51' E 029°14'0 0.0
2016-Jun-20 15:28N 40°51' E 029°14'0 0.0
2016-Jun-20 14:34N 40°51' E 029°14'0 0.0
2016-Jun-20 13:28N 40°51' E 029°14'0 0.0
2016-Jun-20 12:28N 40°51' E 029°14'0 0.1
2016-Jun-20 11:23N 40°51' E 029°14'0 0.0
2016-Jun-20 10:29N 40°51' E 029°14'0 0.0
2016-Jun-20 09:29N 40°51' E 029°14'0 0.0
2016-Jun-20 08:29N 40°51' E 029°14'0 0.0
2016-Jun-20 07:29N 40°51' E 029°14'0 0.0
2016-Jun-18 09:29N 40°51' E 029°14'0 0.0
2016-Jun-18 08:29N 40°51' E 029°14'0 0.0
2016-Jun-18 07:23N 40°51' E 029°14'0 0.0
2016-Jun-18 06:29N 40°51' E 029°14'0 0.0
2016-Jun-18 05:23N 40°51' E 029°14'0 0.0
2016-Jun-18 04:29N 40°51' E 029°14'0 0.0
2016-Jun-18 03:29N 40°51' E 029°14'0 0.0
2016-Jun-18 02:29N 40°51' E 029°14'0 0.0
2016-Jun-18 01:29N 40°51' E 029°14'0 0.0
2016-Jun-18 00:29N 40°51' E 029°14'0 0.0
2016-Jun-17 23:29N 40°51' E 029°14'0 0.0
2016-Jun-17 22:23N 40°51' E 029°14'0 0.1
2016-Jun-17 21:29N 40°51' E 029°14'0 0.0
2016-Jun-17 20:29N 40°51' E 029°14'0 0.0
2016-Jun-17 19:29N 40°51' E 029°14'0 0.0
2016-Jun-17 18:29N 40°51' E 029°14'0 0.0
2016-Jun-17 17:29N 40°51' E 029°14'0 0.0
2016-Jun-17 16:32N 40°51' E 029°14'0 0.0
2016-Jun-17 15:29N 40°51' E 029°14'0 0.0
2016-Jun-17 14:11N 40°51' E 029°14'0 0.0
2016-Jun-17 13:29N 40°51' E 029°14'0 0.0
2016-Jun-17 12:29N 40°51' E 029°14'  

Dump ship's entire track history